Time;durP1;ratioP1;P1;durP2;ratioP2;P2;SDS_P1;SDS_P2;PMS_P1;PMS_P2;Temp;Humidity;BMP_temperature;BMP_pressure;BME280_temperature;BME280_humidity;BME280_pressure;Samples;Min_cycle;Max_cycle;Signal;HPM_P1;HPM_P2
2022/05/10 00:01:06;;;;;;;13.90;5.67;;;13.20;99.90;;;;;;5073209;28;20228;-52
2022/05/10 00:03:37;;;;;;;7.50;5.03;;;13.10;99.90;;;;;;5072485;28;20232;-52
2022/05/10 00:06:06;;;;;;;8.20;5.57;;;13.10;99.90;;;;;;5060776;28;20232;-52
2022/05/10 00:08:37;;;;;;;8.83;5.50;;;13.10;99.90;;;;;;5054243;28;20234;-52
2022/05/10 00:11:05;;;;;;;8.60;5.70;;;13.10;99.90;;;;;;5072519;28;20239;-53
2022/05/10 00:13:33;;;;;;;8.87;5.57;;;13.10;99.90;;;;;;5071755;28;20204;-52
2022/05/10 00:16:03;;;;;;;10.00;5.80;;;13.00;99.90;;;;;;5072394;28;20212;-52
2022/05/10 00:18:31;;;;;;;9.27;5.53;;;13.00;99.90;;;;;;5072432;28;20259;-52
2022/05/10 00:20:59;;;;;;;5.43;4.67;;;13.00;99.90;;;;;;5072198;28;20205;-52
2022/05/10 00:23:27;;;;;;;7.33;5.23;;;13.00;99.90;;;;;;5071753;28;20727;-52
2022/05/10 00:25:55;;;;;;;9.87;5.97;;;13.00;99.90;;;;;;5072404;28;20925;-52
2022/05/10 00:28:23;;;;;;;5.77;4.90;;;12.90;99.90;;;;;;5072311;28;20243;-52
2022/05/10 00:30:51;;;;;;;6.40;4.83;;;12.90;99.90;;;;;;5072524;28;20212;-52
2022/05/10 00:33:25;;;;;;;5.57;4.90;;;12.90;99.90;;;;;;5072010;28;20707;-52
2022/05/10 00:35:54;;;;;;;5.87;5.27;;;12.90;99.90;;;;;;5072015;28;20251;-52
2022/05/10 00:38:25;;;;;;;7.20;5.13;;;12.90;99.90;;;;;;5071916;28;20278;-53
2022/05/10 00:40:55;;;;;;;7.33;5.60;;;12.90;99.90;;;;;;5072078;28;20209;-52
2022/05/10 00:43:29;;;;;;;7.07;5.87;;;12.80;99.90;;;;;;5071904;28;20255;-52
2022/05/10 00:46:01;;;;;;;8.87;5.47;;;12.80;99.90;;;;;;5072473;28;20197;-52
2022/05/10 00:48:37;;;;;;;7.33;5.63;;;12.80;99.90;;;;;;5071799;28;20225;-53
2022/05/10 00:51:13;;;;;;;7.23;5.43;;;12.70;99.90;;;;;;5064124;28;20200;-52
2022/05/10 00:53:52;;;;;;;8.47;5.30;;;12.70;99.90;;;;;;5071446;28;20692;-52
2022/05/10 00:56:25;;;;;;;6.47;5.50;;;12.60;99.90;;;;;;5071896;28;20192;-53
2022/05/10 00:58:58;;;;;;;8.70;5.40;;;12.60;99.90;;;;;;5071644;28;20287;-52
2022/05/10 01:01:31;;;;;;;6.60;5.43;;;12.60;99.90;;;;;;5071952;28;20274;-52
2022/05/10 01:04:09;;;;;;;6.83;5.50;;;12.60;99.90;;;;;;5071026;28;20698;-52
2022/05/10 01:06:47;;;;;;;6.47;5.30;;;12.60;99.90;;;;;;5071287;28;20217;-52
2022/05/10 01:09:25;;;;;;;6.07;5.47;;;12.60;99.90;;;;;;5071300;28;20705;-52
2022/05/10 01:11:59;;;;;;;6.03;5.43;;;12.50;99.90;;;;;;5070674;28;20693;-52
2022/05/10 01:14:32;;;;;;;7.93;5.37;;;12.50;99.90;;;;;;5071204;28;20727;-52
2022/05/10 01:17:01;;;;;;;7.97;5.60;;;12.50;99.90;;;;;;5051571;28;20285;-52
2022/05/10 01:19:30;;;;;;;8.93;5.83;;;12.50;99.90;;;;;;5051726;28;20617;-52
2022/05/10 01:22:16;;;;;;;7.73;5.43;;;12.50;99.90;;;;;;5050929;28;20259;-52
2022/05/10 01:25:13;;;;;;;7.60;5.40;;;12.40;99.90;;;;;;5055452;28;20219;-52
2022/05/10 01:27:51;;;;;;;8.90;6.00;;;12.40;99.90;;;;;;5069597;28;20264;-52
2022/05/10 01:30:22;;;;;;;8.63;6.20;;;12.40;99.90;;;;;;5071218;28;20739;-52
2022/05/10 01:35:59;;;;;;;9.83;5.57;;;12.40;99.90;;;;;;5008741;28;20214;-52
2022/05/10 01:38:35;;;;;;;6.60;5.67;;;12.30;99.90;;;;;;5058842;28;20259;-52
2022/05/10 01:41:13;;;;;;;6.97;5.13;;;12.30;99.90;;;;;;5071382;28;20201;-52
2022/05/10 01:43:46;;;;;;;8.23;6.13;;;12.20;99.90;;;;;;5070477;28;20250;-52
2022/05/10 01:46:19;;;;;;;8.10;5.77;;;12.20;99.90;;;;;;5070789;28;20228;-52
2022/05/10 01:48:52;;;;;;;7.17;5.40;;;12.20;99.90;;;;;;5070991;28;20792;-52
2022/05/10 01:51:28;;;;;;;6.80;6.10;;;12.20;99.90;;;;;;5050298;28;20225;-52
2022/05/10 01:53:56;;;;;;;6.33;5.67;;;12.10;99.90;;;;;;5050867;28;20236;-52
2022/05/10 01:56:26;;;;;;;8.70;5.60;;;12.10;99.90;;;;;;5051073;28;20209;-52
2022/05/10 01:58:55;;;;;;;7.00;5.80;;;12.10;99.90;;;;;;5050629;28;20738;-52
2022/05/10 02:01:32;;;;;;;7.73;6.40;;;12.10;99.90;;;;;;5051021;28;20198;-51
2022/05/10 02:04:04;;;;;;;7.13;5.90;;;12.00;99.90;;;;;;5067233;28;20225;-53
2022/05/10 02:06:34;;;;;;;7.40;5.73;;;12.00;99.90;;;;;;5070542;28;20652;-52
2022/05/10 02:09:08;;;;;;;8.93;6.10;;;12.00;99.90;;;;;;5070452;28;20274;-52
2022/05/10 02:11:40;;;;;;;7.20;5.83;;;11.90;99.90;;;;;;5070360;28;20258;-51
2022/05/10 02:14:15;;;;;;;6.87;5.97;;;11.90;99.90;;;;;;5070831;28;20205;-52
2022/05/10 02:16:51;;;;;;;6.67;5.63;;;12.00;99.90;;;;;;5071138;28;20249;-51
2022/05/10 02:19:23;;;;;;;8.37;5.93;;;12.00;99.90;;;;;;5070654;28;20282;-52
2022/05/10 02:21:56;;;;;;;9.40;6.20;;;12.00;99.90;;;;;;5070384;28;20278;-51
2022/05/10 02:24:34;;;;;;;7.47;5.90;;;12.00;99.90;;;;;;5073430;28;20250;-52
2022/05/10 02:27:08;;;;;;;7.33;6.40;;;11.90;99.90;;;;;;5073953;28;20232;-51
2022/05/10 02:29:42;;;;;;;8.80;6.30;;;11.90;99.90;;;;;;5072419;28;20258;-52
2022/05/10 02:35:05;;;;;;;9.07;6.37;;;11.90;99.90;;;;;;5067719;28;20197;-51
2022/05/10 02:37:33;;;;;;;8.67;6.77;;;11.90;99.90;;;;;;5074547;28;20260;-52
2022/05/10 02:40:02;;;;;;;8.07;6.50;;;11.90;99.90;;;;;;5074653;28;20227;-52
2022/05/10 02:42:31;;;;;;;8.90;6.37;;;11.80;99.90;;;;;;5074238;28;20283;-52
2022/05/10 02:44:59;;;;;;;7.27;6.57;;;11.80;99.90;;;;;;5074260;28;20251;-52
2022/05/10 02:47:32;;;;;;;6.90;6.20;;;11.80;99.90;;;;;;5075870;28;20251;-52
2022/05/10 02:50:00;;;;;;;8.27;6.43;;;11.80;99.90;;;;;;5074191;28;20631;-52
2022/05/10 02:52:29;;;;;;;7.50;6.33;;;11.80;99.90;;;;;;5074145;28;20232;-52
2022/05/10 02:54:58;;;;;;;9.67;6.67;;;11.70;99.90;;;;;;5074611;28;20266;-52
2022/05/10 02:57:28;;;;;;;7.43;6.60;;;11.70;99.90;;;;;;5074146;28;20279;-52
2022/05/10 03:00:00;;;;;;;6.80;6.10;;;11.70;99.90;;;;;;5073977;28;20638;-52
2022/05/10 03:02:34;;;;;;;7.60;6.67;;;11.70;99.90;;;;;;5073806;28;20199;-52
2022/05/10 03:05:04;;;;;;;7.50;6.43;;;11.70;99.90;;;;;;5074203;28;20232;-52
2022/05/10 03:07:32;;;;;;;7.37;6.43;;;11.70;99.90;;;;;;5072591;28;20587;-52
2022/05/10 03:10:01;;;;;;;7.07;6.17;;;11.70;99.90;;;;;;5072826;28;20252;-52
2022/05/10 03:12:30;;;;;;;6.80;6.10;;;11.70;99.90;;;;;;5072171;28;20677;-52
2022/05/10 03:14:58;;;;;;;7.50;6.30;;;11.60;99.90;;;;;;5072503;28;20228;-52
2022/05/10 03:17:26;;;;;;;9.07;6.30;;;11.60;99.90;;;;;;5072344;28;20267;-51
2022/05/10 03:19:56;;;;;;;7.23;6.53;;;11.60;99.90;;;;;;5072347;28;20205;-51
2022/05/10 03:22:24;;;;;;;7.53;5.90;;;11.60;99.90;;;;;;5072352;28;20236;-52
2022/05/10 03:24:52;;;;;;;10.10;6.30;;;11.60;99.90;;;;;;5072457;28;20213;-52
2022/05/10 03:27:26;;;;;;;8.17;7.10;;;11.60;99.90;;;;;;5071790;28;20221;-52
2022/05/10 03:29:54;;;;;;;8.30;7.23;;;11.60;99.90;;;;;;5071797;28;20629;-51
2022/05/10 03:32:22;;;;;;;8.07;7.23;;;11.60;99.90;;;;;;5071772;28;20235;-54
2022/05/10 03:34:58;;;;;;;7.33;6.57;;;11.50;99.90;;;;;;5071854;28;20271;-52
2022/05/10 03:37:29;;;;;;;9.40;6.43;;;11.50;99.90;;;;;;5071545;28;20234;-52
2022/05/10 03:39:59;;;;;;;7.23;6.53;;;11.50;99.90;;;;;;5072264;28;20197;-52
2022/05/10 03:42:27;;;;;;;8.10;6.40;;;11.50;99.90;;;;;;5071770;28;20201;-52
2022/05/10 03:44:55;;;;;;;8.10;6.77;;;11.50;99.90;;;;;;5072356;28;20204;-52
2022/05/10 03:47:27;;;;;;;7.40;6.30;;;11.50;99.90;;;;;;5072247;28;20264;-52
2022/05/10 03:49:56;;;;;;;7.37;6.33;;;11.50;99.90;;;;;;5071963;28;20197;-52
2022/05/10 03:52:26;;;;;;;6.90;6.20;;;11.50;99.90;;;;;;5071266;28;20232;-52
2022/05/10 03:54:54;;;;;;;8.43;7.17;;;11.60;99.90;;;;;;5072006;28;20266;-52
2022/05/10 03:57:22;;;;;;;7.27;6.43;;;11.60;99.90;;;;;;5072044;28;20770;-52
2022/05/10 03:59:50;;;;;;;8.10;6.43;;;11.60;99.90;;;;;;5071748;28;20636;-52
2022/05/10 04:02:18;;;;;;;8.40;6.83;;;11.60;99.90;;;;;;5071858;28;20228;-51
2022/05/10 04:04:46;;;;;;;8.47;6.43;;;11.60;99.90;;;;;;5071747;28;20232;-52
2022/05/10 04:07:15;;;;;;;8.43;6.72;;;11.70;99.90;;;;;;5034252;28;1096285;-52
2022/05/10 04:09:44;;;;;;;9.47;7.30;;;11.70;99.90;;;;;;5061873;28;20256;-52
2022/05/10 04:12:12;;;;;;;8.53;6.67;;;11.70;99.90;;;;;;5052066;28;20731;-52
2022/05/10 04:14:40;;;;;;;7.50;6.63;;;11.70;99.90;;;;;;5054024;28;20667;-52
2022/05/10 04:17:08;;;;;;;7.60;6.60;;;11.80;99.90;;;;;;5072495;28;20228;-52
2022/05/10 04:19:37;;;;;;;8.17;7.37;;;11.90;99.90;;;;;;5072684;28;20635;-51
2022/05/10 04:22:05;;;;;;;7.53;6.73;;;11.90;99.90;;;;;;5072092;28;20236;-52
2022/05/10 04:24:34;;;;;;;8.10;6.80;;;11.90;99.90;;;;;;5072402;28;20766;-53
2022/05/10 04:27:04;;;;;;;7.37;6.67;;;12.00;99.90;;;;;;5072651;28;20205;-52
2022/05/10 04:29:32;;;;;;;8.47;6.43;;;12.20;99.90;;;;;;5070325;28;20239;-52
2022/05/10 04:32:00;;;;;;;8.63;6.10;;;12.20;99.90;;;;;;5072048;28;20224;-52
2022/05/10 04:34:28;;;;;;;7.87;6.20;;;12.30;99.90;;;;;;5072319;28;20211;-52
2022/05/10 04:36:56;;;;;;;7.47;5.77;;;12.40;99.90;;;;;;5072393;28;20209;-52
2022/05/10 04:39:24;;;;;;;7.63;6.40;;;12.50;99.90;;;;;;5071932;28;20212;-52
2022/05/10 04:41:53;;;;;;;7.63;6.30;;;12.50;99.90;;;;;;5071507;28;20669;-52
2022/05/10 04:44:23;;;;;;;6.97;6.07;;;12.50;99.90;;;;;;5072417;28;20616;-52
2022/05/10 04:46:51;;;;;;;9.20;6.33;;;12.60;99.90;;;;;;5071303;28;20236;-52
2022/05/10 04:49:19;;;;;;;8.83;6.30;;;12.60;99.90;;;;;;5072024;28;20238;-52
2022/05/10 04:51:47;;;;;;;7.53;6.27;;;12.70;99.90;;;;;;5070040;28;20274;-52
2022/05/10 04:54:15;;;;;;;7.33;5.93;;;12.80;99.90;;;;;;5072068;28;20204;-52
2022/05/10 04:56:43;;;;;;;6.63;5.70;;;12.80;99.90;;;;;;5071658;28;20236;-52
2022/05/10 04:59:11;;;;;;;7.70;5.90;;;12.90;99.90;;;;;;5071533;28;20220;-52
2022/05/10 05:01:40;;;;;;;7.70;6.07;;;12.90;99.90;;;;;;5071462;28;20205;-52
2022/05/10 05:04:09;;;;;;;6.13;5.53;;;13.10;99.90;;;;;;5071719;28;20205;-52
2022/05/10 05:06:39;;;;;;;7.80;6.70;;;13.20;99.90;;;;;;5071569;28;20658;-52
2022/05/10 05:09:08;;;;;;;6.37;5.77;;;13.30;99.90;;;;;;5064984;28;20725;-53
2022/05/10 05:11:36;;;;;;;7.03;6.43;;;13.40;99.90;;;;;;5051589;28;20702;-52
2022/05/10 05:14:04;;;;;;;7.03;5.83;;;13.60;99.90;;;;;;5051381;28;20621;-52
2022/05/10 05:16:32;;;;;;;7.07;5.90;;;13.60;99.90;;;;;;5051298;28;20562;-52
2022/05/10 05:19:02;;;;;;;6.67;5.83;;;13.80;99.90;;;;;;5066626;28;20256;-53
2022/05/10 05:21:30;;;;;;;7.07;6.47;;;14.10;99.90;;;;;;5071383;28;20624;-52
2022/05/10 05:23:58;;;;;;;6.97;5.73;;;14.60;99.90;;;;;;5070880;28;20258;-52
2022/05/10 05:26:26;;;;;;;8.33;5.90;;;15.00;99.90;;;;;;5071054;28;20666;-52
2022/05/10 05:28:54;;;;;;;7.03;6.10;;;15.30;99.90;;;;;;5070348;28;20267;-52
2022/05/10 05:31:23;;;;;;;6.75;6.15;;;15.60;99.90;;;;;;5071175;28;20260;-53
2022/05/10 05:33:51;;;;;;;6.82;5.90;;;16.10;99.90;;;;;;5070315;28;20747;-53
2022/05/10 05:36:21;;;;;;;7.68;5.85;;;16.40;99.90;;;;;;5070791;28;20685;-53
2022/05/10 05:38:49;;;;;;;9.85;6.20;;;16.40;99.90;;;;;;5070726;28;20709;-53
2022/05/10 05:41:18;;;;;;;6.40;5.85;;;16.50;99.90;;;;;;5071500;28;20230;-52
2022/05/10 05:43:46;;;;;;;6.72;6.03;;;16.40;99.90;;;;;;5070403;28;20262;-53
2022/05/10 05:46:14;;;;;;;6.82;6.15;;;16.60;99.90;;;;;;5071280;28;20244;-53
2022/05/10 05:48:42;;;;;;;7.47;6.55;;;16.80;99.90;;;;;;5070860;28;20231;-53
2022/05/10 05:51:10;;;;;;;8.05;6.50;;;16.90;99.90;;;;;;5050876;28;20738;-53
2022/05/10 05:53:40;;;;;;;11.15;6.30;;;17.10;99.90;;;;;;5050475;28;20213;-52
2022/05/10 05:56:10;;;;;;;10.68;5.95;;;17.10;99.90;;;;;;5051037;28;20217;-53
2022/05/10 05:58:40;;;;;;;8.43;6.35;;;17.00;99.90;;;;;;5052571;28;20226;-53
2022/05/10 06:01:13;;;;;;;8.05;6.60;;;17.00;99.90;;;;;;5070966;28;20262;-54
2022/05/10 06:03:42;;;;;;;7.28;6.50;;;17.20;99.90;;;;;;5070259;28;20677;-52
2022/05/10 06:06:11;;;;;;;7.80;6.15;;;17.70;99.90;;;;;;5070683;28;20222;-53
2022/05/10 06:08:46;;;;;;;8.75;5.75;;;18.20;99.90;;;;;;5070375;28;20232;-54
2022/05/10 06:11:14;;;;;;;7.60;6.35;;;18.60;99.90;;;;;;5070740;28;20235;-53
2022/05/10 06:13:42;;;;;;;6.03;5.43;;;18.80;99.90;;;;;;5069643;28;20221;-53
2022/05/10 06:16:10;;;;;;;6.70;6.10;;;19.00;99.90;;;;;;5071152;28;20189;-53
2022/05/10 06:18:38;;;;;;;8.25;6.47;;;19.30;99.90;;;;;;5070399;28;20257;-53
2022/05/10 06:21:06;;;;;;;6.32;5.78;;;19.20;99.90;;;;;;5070915;28;20316;-53
2022/05/10 06:23:34;;;;;;;7.75;6.28;;;19.60;99.90;;;;;;5070002;28;20563;-53
2022/05/10 06:26:04;;;;;;;6.43;5.82;;;20.00;99.90;;;;;;5070770;28;20205;-53
2022/05/10 06:28:32;;;;;;;6.82;6.07;;;20.20;99.90;;;;;;5069736;28;20311;-52
2022/05/10 06:31:01;;;;;;;8.25;6.70;;;19.90;99.90;;;;;;5070537;28;20263;-53
2022/05/10 06:33:30;;;;;;;7.20;6.50;;;19.70;99.90;;;;;;5070247;28;20225;-53
2022/05/10 06:35:58;;;;;;;7.13;6.43;;;19.50;99.90;;;;;;5070224;28;20244;-52
2022/05/10 06:38:28;;;;;;;6.60;6.00;;;19.40;99.90;;;;;;5070495;28;20603;-52
2022/05/10 06:40:57;;;;;;;7.22;5.85;;;19.60;99.90;;;;;;5070631;28;20807;-53
2022/05/10 06:43:35;;;;;;;6.30;5.78;;;19.70;99.90;;;;;;5070271;28;20189;-53
2022/05/10 06:46:08;;;;;;;6.68;6.03;;;19.80;99.90;;;;;;5070802;28;20224;-52
2022/05/10 06:48:36;;;;;;;6.90;6.13;;;19.90;99.90;;;;;;5070251;28;20264;-52
2022/05/10 06:51:06;;;;;;;7.00;6.38;;;20.10;99.90;;;;;;5051473;28;20197;-52
2022/05/10 06:53:34;;;;;;;7.20;5.95;;;20.20;99.90;;;;;;5049780;28;20226;-52
2022/05/10 06:56:02;;;;;;;9.20;5.78;;;20.30;99.90;;;;;;5062793;28;20227;-53
2022/05/10 06:58:32;;;;;;;6.57;5.97;;;20.50;99.90;;;;;;5057808;28;20252;-53
2022/05/10 07:01:00;;;;;;;6.30;5.70;;;20.70;99.90;;;;;;5068894;28;20209;-52
2022/05/10 07:03:32;;;;;;;7.30;5.47;;;21.00;99.90;;;;;;5069389;28;20197;-53
2022/05/10 07:06:01;;;;;;;6.90;5.53;;;21.40;99.90;;;;;;5069722;28;20278;-53
2022/05/10 07:08:30;;;;;;;6.43;5.38;;;21.40;99.90;;;;;;5070034;28;20286;-53
2022/05/10 07:10:58;;;;;;;6.75;5.70;;;21.40;99.90;;;;;;5074228;28;20259;-53
2022/05/10 07:13:29;;;;;;;6.20;5.60;;;21.40;99.90;;;;;;5073203;28;20287;-53
2022/05/10 07:15:58;;;;;;;5.75;5.15;;;21.50;99.90;;;;;;5073803;28;20239;-53
2022/05/10 07:18:27;;;;;;;6.63;5.40;;;21.80;99.90;;;;;;5072441;28;20225;-53
2022/05/10 07:20:55;;;;;;;6.72;5.45;;;22.00;99.90;;;;;;5074058;28;20205;-53
2022/05/10 07:23:26;;;;;;;5.50;5.00;;;22.20;99.90;;;;;;5072914;28;20251;-53
2022/05/10 07:25:55;;;;;;;6.10;5.00;;;22.30;99.90;;;;;;5074036;28;20217;-53
2022/05/10 07:28:23;;;;;;;8.57;5.53;;;22.70;99.90;;;;;;5073162;28;20221;-54
2022/05/10 07:30:51;;;;;;;8.88;5.65;;;22.50;99.90;;;;;;5063059;28;20228;-53
2022/05/10 07:33:20;;;;;;;8.48;5.93;;;22.30;99.90;;;;;;5071864;28;20248;-53
2022/05/10 07:38:33;;;;;;;6.22;5.65;;;22.40;99.90;;;;;;5073475;28;20651;-54
2022/05/10 07:41:01;;;;;;;7.78;5.85;;;22.50;99.90;;;;;;5073039;28;20205;-53
2022/05/10 07:43:34;;;;;;;6.40;5.75;;;23.10;99.90;;;;;;5058902;28;20206;-53
2022/05/10 07:46:02;;;;;;;6.03;5.43;;;23.40;99.90;;;;;;5052914;28;20233;-53
2022/05/10 07:48:32;;;;;;;8.57;6.13;;;23.60;99.90;;;;;;5052587;28;20312;-53
2022/05/10 07:51:00;;;;;;;8.00;6.03;;;23.80;99.90;;;;;;5053930;28;20263;-53
2022/05/10 07:53:30;;;;;;;7.00;5.60;;;23.90;99.90;;;;;;5051829;28;20248;-53
2022/05/10 07:55:58;;;;;;;8.30;5.75;;;23.90;99.90;;;;;;5056997;28;20213;-53
2022/05/10 07:58:27;;;;;;;6.95;6.13;;;24.10;99.90;;;;;;5069015;28;20225;-54
2022/05/10 08:00:55;;;;;;;7.80;6.13;;;23.80;99.90;;;;;;5072726;28;20579;-53
2022/05/10 08:03:25;;;;;;;6.65;6.05;;;23.40;99.90;;;;;;5072338;28;20239;-53
2022/05/10 08:05:56;;;;;;;7.78;5.78;;;22.90;99.90;;;;;;5072497;28;20651;-53
2022/05/10 08:08:25;;;;;;;6.68;5.97;;;22.70;99.90;;;;;;5072836;28;20294;-52
2022/05/10 08:11:03;;;;;;;7.15;6.28;;;22.60;99.90;;;;;;5072350;28;20711;-53
2022/05/10 08:13:33;;;;;;;7.18;6.05;;;22.40;99.90;;;;;;5071508;28;20320;-54
2022/05/10 08:16:01;;;;;;;7.72;6.13;;;22.40;99.90;;;;;;5072622;28;20240;-53
2022/05/10 08:18:30;;;;;;;6.30;5.65;;;22.40;99.90;;;;;;5072086;28;20232;-53
2022/05/10 08:21:00;;;;;;;6.88;6.18;;;22.50;99.90;;;;;;5061221;28;20256;-53
2022/05/10 08:23:31;;;;;;;6.50;5.90;;;22.60;99.90;;;;;;5051686;28;20623;-53
2022/05/10 08:26:02;;;;;;;7.82;6.30;;;22.80;99.90;;;;;;5052508;28;20302;-53
2022/05/10 08:28:32;;;;;;;7.80;6.68;;;22.90;99.90;;;;;;5052378;28;20226;-52
2022/05/10 08:31:00;;;;;;;7.50;6.18;;;22.90;99.90;;;;;;5058011;28;20243;-52
2022/05/10 08:33:29;;;;;;;9.57;6.55;;;23.00;99.90;;;;;;5071371;28;20259;-53
2022/05/10 08:36:00;;;;;;;8.23;6.38;;;23.00;99.90;;;;;;5063451;28;20667;-53
2022/05/10 08:38:30;;;;;;;8.43;7.05;;;23.00;99.90;;;;;;5053145;28;20229;-52
2022/05/10 08:41:05;;;;;;;6.95;6.25;;;22.90;99.90;;;;;;5071868;28;20189;-52
2022/05/10 08:43:38;;;;;;;8.55;7.03;;;22.70;99.90;;;;;;5071150;28;20261;-52
2022/05/10 08:46:08;;;;;;;8.80;6.97;;;22.70;99.90;;;;;;5072213;28;20602;-52
2022/05/10 08:48:37;;;;;;;7.82;6.50;;;22.90;99.90;;;;;;5071561;28;20278;-52
2022/05/10 08:51:07;;;;;;;8.95;7.10;;;22.80;99.90;;;;;;5056147;28;20264;-53
2022/05/10 08:53:35;;;;;;;10.15;6.82;;;22.80;99.90;;;;;;5061052;28;20793;-52
2022/05/10 08:56:09;;;;;;;10.07;6.95;;;22.90;99.90;;;;;;5071962;28;20250;-52
2022/05/10 08:58:52;;;;;;;10.82;7.25;;;23.10;99.90;;;;;;5071461;28;20257;-53
2022/05/10 09:01:44;;;;;;;7.97;6.55;;;23.10;99.90;;;;;;5071743;28;20196;-53
2022/05/10 09:04:24;;;;;;;8.35;6.50;;;22.90;99.90;;;;;;5071423;28;20303;-52
2022/05/10 09:07:06;;;;;;;9.93;6.97;;;23.00;99.90;;;;;;5071349;28;20756;-53
2022/05/10 09:09:47;;;;;;;8.23;6.97;;;23.10;99.90;;;;;;5071526;28;20267;-53
2022/05/10 09:12:20;;;;;;;8.95;7.28;;;23.10;99.90;;;;;;5071098;28;20758;-53
2022/05/10 09:14:54;;;;;;;7.47;6.78;;;23.00;99.90;;;;;;5071672;28;20254;-53
2022/05/10 09:17:23;;;;;;;9.07;7.07;;;23.10;99.90;;;;;;5071358;28;20221;-53
2022/05/10 09:19:52;;;;;;;8.68;7.18;;;23.10;99.90;;;;;;5070353;28;20670;-53
2022/05/10 09:23:06;;;;;;;9.82;6.82;;;23.20;99.90;;;;;;5050488;28;20288;-53
2022/05/10 09:25:37;;;;;;;10.05;6.90;;;23.40;99.90;;;;;;5053099;28;20244;-53
2022/05/10 09:28:14;;;;;;;7.47;6.68;;;23.50;99.90;;;;;;5070770;28;20275;-54
2022/05/10 09:34:45;;;;;;;7.32;6.63;;;23.60;99.90;;;;;;5070936;28;20711;-53
2022/05/10 09:36:25;;;;;;;10.10;6.93;;;23.80;99.90;;;;;;5070715;28;20201;-53
2022/05/10 09:39:00;;;;;;;8.95;7.20;;;23.70;99.90;;;;;;5071053;28;20251;-54
2022/05/10 09:41:36;;;;;;;7.07;6.35;;;23.60;99.90;;;;;;5070972;28;20262;-53
2022/05/10 09:44:21;;;;;;;6.88;6.28;;;23.70;99.90;;;;;;5070622;28;20200;-53
2022/05/10 09:46:50;;;;;;;7.10;6.40;;;23.80;99.90;;;;;;5070806;28;20233;-53
2022/05/10 09:49:31;;;;;;;6.13;5.53;;;23.90;99.90;;;;;;5070506;28;20332;-52
2022/05/10 09:52:00;;;;;;;6.22;5.40;;;24.00;99.90;;;;;;5068313;28;20205;-53
2022/05/10 09:54:37;;;;;;;7.72;5.65;;;24.10;99.90;;;;;;5069876;28;20253;-53
2022/05/10 09:57:09;;;;;;;7.13;5.68;;;24.20;99.90;;;;;;5070389;28;20201;-52
2022/05/10 09:59:43;;;;;;;7.05;5.63;;;24.20;99.90;;;;;;5068754;28;20251;-53
2022/05/10 10:02:11;;;;;;;7.97;5.70;;;24.40;99.90;;;;;;5070396;28;20547;-52
2022/05/10 10:04:41;;;;;;;8.98;5.38;;;24.30;99.90;;;;;;5069994;28;20297;-53
2022/05/10 10:07:13;;;;;;;6.60;6.00;;;24.20;99.90;;;;;;5070369;28;20220;-52
2022/05/10 10:09:45;;;;;;;8.05;6.00;;;24.20;99.90;;;;;;5069957;28;20211;-53
2022/05/10 10:12:17;;;;;;;9.38;5.63;;;24.30;99.90;;;;;;5069900;28;20251;-53
2022/05/10 10:14:48;;;;;;;8.93;5.60;;;24.30;99.90;;;;;;5070205;28;20709;-53
2022/05/10 10:17:25;;;;;;;7.40;6.07;;;24.40;99.90;;;;;;5070049;28;20204;-53
2022/05/10 10:20:00;;;;;;;7.53;6.22;;;24.70;99.90;;;;;;5070320;28;20678;-53
2022/05/10 10:22:36;;;;;;;7.30;5.85;;;24.80;99.90;;;;;;5069320;28;20654;-53
2022/05/10 10:25:11;;;;;;;6.07;5.40;;;24.80;99.90;;;;;;5069926;28;20196;-53
2022/05/10 10:27:44;;;;;;;6.20;5.60;;;24.80;99.90;;;;;;5062340;28;20690;-53
2022/05/10 10:30:22;;;;;;;6.22;5.32;;;24.80;99.90;;;;;;5067803;28;20201;-53
2022/05/10 10:32:55;;;;;;;7.05;5.13;;;24.90;99.90;;;;;;5069619;28;20254;-53
2022/05/10 10:35:32;;;;;;;5.80;5.30;;;25.00;99.90;;;;;;5069451;28;20229;-53
2022/05/10 10:38:08;;;;;;;9.40;5.22;;;25.00;99.90;;;;;;5069389;28;20713;-53
2022/05/10 10:40:41;;;;;;;6.75;5.00;;;24.90;99.90;;;;;;5069843;28;20231;-54
2022/05/10 10:43:17;;;;;;;6.13;5.53;;;25.00;99.90;;;;;;5069432;28;20213;-53
2022/05/10 10:45:48;;;;;;;4.97;4.22;;;25.00;99.90;;;;;;5072977;28;20201;-53
2022/05/10 10:48:26;;;;;;;5.30;4.65;;;25.20;99.90;;;;;;5073734;28;20229;-53
2022/05/10 10:50:55;;;;;;;5.63;4.28;;;25.40;99.90;;;;;;5073754;28;20250;-53
2022/05/10 10:53:26;;;;;;;8.73;5.63;;;25.40;99.90;;;;;;5073142;28;20763;-53
2022/05/10 10:56:09;;;;;;;5.50;5.00;;;25.40;99.90;;;;;;5073729;28;20233;-53
2022/05/10 10:58:46;;;;;;;5.90;5.03;;;25.50;99.90;;;;;;5073122;28;20264;-53
2022/05/10 11:01:32;;;;;;;7.05;5.10;;;25.40;99.90;;;;;;5071910;28;20235;-53
2022/05/10 11:04:12;;;;;;;7.45;5.55;;;25.30;99.90;;;;;;5072978;28;20201;-53
2022/05/10 11:06:45;;;;;;;7.00;5.18;;;25.40;99.90;;;;;;5073534;28;20240;-53
2022/05/10 11:09:45;;;;;;;7.30;5.25;;;25.50;99.90;;;;;;5065736;28;20218;-53
2022/05/10 11:12:32;;;;;;;6.30;5.13;;;25.30;99.90;;;;;;5052984;28;20224;-54
2022/05/10 11:15:17;;;;;;;5.43;4.93;;;25.20;99.90;;;;;;5052535;28;20306;-53
2022/05/10 11:18:07;;;;;;;9.48;5.22;;;25.20;99.90;;;;;;5066626;28;20252;-53
2022/05/10 11:20:46;;;;;;;7.25;5.63;;;25.10;99.90;;;;;;5072786;28;20350;-53
2022/05/10 11:23:26;;;;;;;6.35;5.25;;;25.30;99.90;;;;;;5073512;28;20185;-52
2022/05/10 11:26:10;;;;;;;5.28;4.70;;;25.50;99.90;;;;;;5073450;28;20258;-53
2022/05/10 11:29:06;;;;;;;7.47;4.78;;;25.60;99.90;;;;;;5071552;28;20523;-53
2022/05/10 11:31:41;;;;;;;7.50;5.40;;;26.10;99.90;;;;;;5072891;28;20872;-52
2022/05/10 11:34:30;;;;;;;6.20;5.25;;;26.00;99.90;;;;;;5073247;28;20204;-53
2022/05/10 11:37:01;;;;;;;7.88;4.60;;;25.80;99.90;;;;;;5072905;28;20244;-53
2022/05/10 11:39:54;;;;;;;4.95;4.35;;;25.50;99.90;;;;;;5073061;28;20287;-53
2022/05/10 11:42:26;;;;;;;6.63;5.25;;;25.50;99.90;;;;;;5072796;28;20642;-53
2022/05/10 11:45:21;;;;;;;8.07;5.35;;;25.30;99.90;;;;;;5073331;28;20197;-53
2022/05/10 11:48:16;;;;;;;6.25;5.35;;;25.40;99.90;;;;;;5063187;28;20260;-53
2022/05/10 11:54:36;;;;;;;4.78;4.25;;;25.20;97.50;;;;;;5063803;28;20200;-53
2022/05/10 11:57:08;;;;;;;5.88;4.20;;;25.50;99.10;;;;;;5063656;28;20201;-53
2022/05/10 11:59:39;;;;;;;7.57;4.70;;;25.50;98.70;;;;;;5072058;28;20232;-53
2022/05/10 12:02:48;;;;;;;5.75;4.72;;;25.50;99.60;;;;;;5072135;28;20666;-53
2022/05/10 12:05:28;;;;;;;5.75;4.60;;;25.50;99.50;;;;;;5071972;28;20229;-53
2022/05/10 12:07:58;;;;;;;4.97;4.53;;;25.30;99.90;;;;;;5072168;28;20329;-53
2022/05/10 12:10:36;;;;;;;4.95;4.53;;;25.40;99.50;;;;;;5070022;28;20205;-53
2022/05/10 12:13:09;;;;;;;7.10;4.50;;;25.40;98.30;;;;;;5053211;28;20201;-53
2022/05/10 12:21:58;;;;;;;5.00;4.50;;;25.70;99.90;;;;;;5052201;28;20201;-53
2022/05/10 12:24:36;;;;;;;5.40;4.90;;;25.90;99.00;;;;;;5051821;28;20186;-53
2022/05/10 12:27:34;;;;;;;4.72;4.28;;;25.80;97.70;;;;;;5051131;28;20205;-53
2022/05/10 12:30:12;;;;;;;5.55;4.78;;;25.90;98.70;;;;;;5052355;28;20720;-53
2022/05/10 12:32:46;;;;;;;6.70;4.40;;;25.90;97.60;;;;;;5055790;28;21079;-53
2022/05/10 12:38:48;;;;;;;6.32;4.72;;;25.60;98.10;;;;;;5086978;28;20569;-53
2022/05/10 12:41:41;;;;;;;6.25;4.50;;;25.90;99.90;;;;;;5086472;28;20207;-53
2022/05/10 12:44:31;;;;;;;7.22;5.13;;;26.00;99.90;;;;;;5079929;28;20223;-54
2022/05/10 12:47:12;;;;;;;6.53;4.60;;;25.90;98.80;;;;;;5087742;28;20205;-53
2022/05/10 12:49:58;;;;;;;4.90;4.50;;;25.80;99.30;;;;;;5087541;28;20226;-54
2022/05/10 12:52:39;;;;;;;8.15;5.30;;;25.60;97.90;;;;;;5086940;28;20250;-54
2022/05/10 12:55:12;;;;;;;5.90;4.82;;;25.40;98.10;;;;;;5087238;28;20292;-54
2022/05/10 12:57:45;;;;;;;6.30;5.00;;;25.60;99.90;;;;;;5085994;28;20906;-53
2022/05/10 13:00:19;;;;;;;10.35;4.68;;;25.90;98.90;;;;;;5086758;28;20622;-53
2022/05/10 13:02:53;;;;;;;4.80;4.40;;;25.50;99.50;;;;;;5086245;28;20622;-53
2022/05/10 13:05:28;;;;;;;6.07;4.65;;;25.50;99.80;;;;;;5087921;28;20342;-54
2022/05/10 13:08:29;;;;;;;5.47;4.90;;;25.60;99.30;;;;;;5067087;28;20252;-53
2022/05/10 13:11:21;;;;;;;5.95;5.22;;;25.80;98.50;;;;;;5064668;28;20209;-53
2022/05/10 13:13:52;;;;;;;7.93;5.15;;;25.80;99.10;;;;;;5066623;28;20229;-54
2022/05/10 13:16:21;;;;;;;5.72;4.85;;;25.70;99.10;;;;;;5066660;28;20235;-53
2022/05/10 13:18:53;;;;;;;5.50;5.00;;;25.70;98.80;;;;;;5067153;28;20689;-53
2022/05/10 13:21:25;;;;;;;5.57;4.80;;;25.70;98.40;;;;;;5067399;28;20213;-53
2022/05/10 13:23:54;;;;;;;5.85;4.85;;;25.70;98.70;;;;;;5067242;28;20213;-53
2022/05/10 13:26:23;;;;;;;6.55;5.10;;;25.90;99.90;;;;;;5066823;28;20752;-53
2022/05/10 13:28:54;;;;;;;8.10;5.18;;;25.80;98.50;;;;;;5067048;28;20224;-53
2022/05/10 13:31:27;;;;;;;6.05;5.30;;;25.70;99.10;;;;;;5082971;28;20258;-53
2022/05/10 13:34:10;;;;;;;5.10;4.60;;;25.60;99.80;;;;;;5086940;28;20681;-53
2022/05/10 13:36:41;;;;;;;6.45;5.10;;;25.40;99.50;;;;;;5087396;28;20262;-53
2022/05/10 13:39:13;;;;;;;7.55;5.38;;;25.30;99.10;;;;;;5086757;28;20220;-53